Time;durP1;ratioP1;P1;durP2;ratioP2;P2;SDS_P1;SDS_P2;PMS_P1;PMS_P2;Temp;Humidity;BMP_temperature;BMP_pressure;BME280_temperature;BME280_humidity;BME280_pressure;Samples;Min_cycle;Max_cycle;Signal;HPM_P1;HPM_P2
2022/07/11 00:02:12;;;;;;;20.27;19.17;;;15.20;99.90;;;;;;4973670;28;20272;-76
2022/07/11 00:04:39;;;;;;;20.10;18.83;;;15.20;99.90;;;;;;4983929;28;20697;-77
2022/07/11 00:07:06;;;;;;;16.77;15.67;;;15.20;99.90;;;;;;4992273;28;20485;-77
2022/07/11 00:09:32;;;;;;;19.00;18.10;;;15.30;99.90;;;;;;4975605;28;20181;-78
2022/07/11 00:12:00;;;;;;;15.30;14.30;;;15.30;99.90;;;;;;4992632;28;20176;-78
2022/07/11 00:14:27;;;;;;;15.57;14.73;;;15.30;99.90;;;;;;4966336;28;20184;-75
2022/07/11 00:16:53;;;;;;;20.17;18.80;;;15.30;99.90;;;;;;4972361;28;20189;-76
2022/07/11 00:19:20;;;;;;;14.77;13.90;;;15.20;99.90;;;;;;4972872;28;20244;-75
2022/07/11 00:21:47;;;;;;;20.00;19.00;;;15.10;99.90;;;;;;4972069;28;20181;-76
2022/07/11 00:24:13;;;;;;;21.60;20.50;;;15.10;99.90;;;;;;4978883;28;20214;-77
2022/07/11 00:26:39;;;;;;;34.77;33.00;;;15.10;99.90;;;;;;4992089;28;20263;-76
2022/07/11 00:29:05;;;;;;;59.00;56.03;;;15.10;99.90;;;;;;4974255;28;20546;-76
2022/07/11 00:31:32;;;;;;;104.07;98.87;;;15.00;99.90;;;;;;4992234;28;20712;-76
2022/07/11 00:33:58;;;;;;;153.33;145.07;;;15.10;99.90;;;;;;4987554;28;20200;-76
2022/07/11 00:36:24;;;;;;;191.53;181.67;;;15.20;99.90;;;;;;4972765;28;20218;-76
2022/07/11 00:38:50;;;;;;;192.07;182.30;;;15.20;99.90;;;;;;4972593;28;20189;-75
2022/07/11 00:41:16;;;;;;;181.97;172.70;;;15.10;99.90;;;;;;4971908;28;20212;-76
2022/07/11 00:43:43;;;;;;;139.33;132.33;;;15.10;99.90;;;;;;4973248;28;20225;-77
2022/07/11 00:46:09;;;;;;;116.33;110.63;;;15.10;99.90;;;;;;4991876;28;20286;-76
2022/07/11 00:48:37;;;;;;;55.57;52.70;;;15.00;99.90;;;;;;4991181;28;20180;-77
2022/07/11 00:51:04;;;;;;;39.70;37.47;;;15.00;99.90;;;;;;4991897;28;20179;-76
2022/07/11 00:53:31;;;;;;;24.77;23.57;;;14.80;99.90;;;;;;5006680;28;20192;-77
2022/07/11 00:55:59;;;;;;;19.47;18.13;;;14.80;99.90;;;;;;4953150;28;20674;-76
2022/07/11 00:58:26;;;;;;;11.47;10.87;;;14.70;99.90;;;;;;4952302;28;20193;-76
2022/07/11 01:00:51;;;;;;;10.40;9.63;;;14.70;99.90;;;;;;4953149;28;20201;-77
2022/07/11 01:03:17;;;;;;;11.67;11.07;;;14.70;99.90;;;;;;4935947;29;20190;-76
2022/07/11 01:05:43;;;;;;;11.67;10.83;;;14.60;99.90;;;;;;4985830;28;20258;-76
2022/07/11 01:08:09;;;;;;;7.57;7.13;;;14.60;99.90;;;;;;4971482;28;20181;-76
2022/07/11 01:10:36;;;;;;;8.50;7.83;;;14.60;99.90;;;;;;4955195;28;20184;-76
2022/07/11 01:13:02;;;;;;;6.67;6.23;;;14.60;99.90;;;;;;4972289;28;20181;-76
2022/07/11 01:15:28;;;;;;;8.33;7.63;;;14.70;99.90;;;;;;4968171;28;20668;-77
2022/07/11 01:17:54;;;;;;;7.30;6.90;;;14.70;99.90;;;;;;4989646;28;20188;-76
2022/07/11 01:20:22;;;;;;;7.17;6.77;;;14.70;99.90;;;;;;4974288;28;20187;-76
2022/07/11 01:22:52;;;;;;;6.90;6.30;;;14.70;99.90;;;;;;4974269;28;20543;-76
2022/07/11 01:25:30;;;;;;;6.70;6.30;;;14.70;99.90;;;;;;4960289;28;20300;-76
2022/07/11 01:28:03;;;;;;;6.97;6.40;;;14.70;99.90;;;;;;4971407;28;20672;-77
2022/07/11 01:30:31;;;;;;;7.53;7.13;;;14.60;99.90;;;;;;4972704;28;20181;-76
2022/07/11 01:32:58;;;;;;;11.77;10.73;;;14.60;99.90;;;;;;4974319;28;20279;-76
2022/07/11 01:35:26;;;;;;;29.03;27.63;;;14.60;99.90;;;;;;4976235;28;20209;-77
2022/07/11 01:37:52;;;;;;;18.17;17.10;;;14.60;99.90;;;;;;4975022;28;20188;-76
2022/07/11 01:40:18;;;;;;;20.73;19.70;;;14.60;99.90;;;;;;4975901;28;20181;-76
2022/07/11 01:42:44;;;;;;;17.23;16.30;;;14.50;99.90;;;;;;4975715;28;20181;-76
2022/07/11 01:45:11;;;;;;;15.83;14.73;;;14.50;99.90;;;;;;4987432;28;20216;-76
2022/07/11 01:47:37;;;;;;;9.60;8.90;;;14.50;99.90;;;;;;4994205;28;20713;-76
2022/07/11 01:50:04;;;;;;;6.40;5.90;;;14.60;99.90;;;;;;4995003;28;20218;-77
2022/07/11 01:52:31;;;;;;;12.30;11.63;;;14.60;99.90;;;;;;4994988;28;20172;-77
2022/07/11 01:54:57;;;;;;;18.60;17.40;;;14.60;99.90;;;;;;4967716;28;20579;-76
2022/07/11 01:57:23;;;;;;;28.73;27.03;;;14.60;99.90;;;;;;4973585;28;20204;-77
2022/07/11 01:59:49;;;;;;;46.60;44.17;;;14.60;99.90;;;;;;4975700;28;20193;-77
2022/07/11 02:02:15;;;;;;;89.27;84.73;;;14.60;99.90;;;;;;4975995;28;20181;-75
2022/07/11 02:07:07;;;;;;;147.67;139.93;;;14.50;99.90;;;;;;5029816;23;20259;-78
2022/07/11 02:09:34;;;;;;;165.03;156.53;;;14.50;99.90;;;;;;5032137;28;20172;-77
2022/07/11 02:12:00;;;;;;;155.90;147.87;;;14.50;99.90;;;;;;5032913;28;20192;-77
2022/07/11 02:14:25;;;;;;;116.97;111.07;;;14.50;99.90;;;;;;5007866;28;20281;-78
2022/07/11 02:16:51;;;;;;;131.30;124.53;;;14.60;99.90;;;;;;5001820;28;20204;-78
2022/07/11 02:19:17;;;;;;;161.63;153.43;;;14.60;99.90;;;;;;4986338;28;20199;-77
2022/07/11 02:21:43;;;;;;;160.40;152.13;;;14.60;99.90;;;;;;5017609;28;20227;-78
2022/07/11 02:24:09;;;;;;;160.20;152.07;;;14.70;99.90;;;;;;4978151;28;20231;-78
2022/07/11 02:26:35;;;;;;;173.43;164.43;;;14.60;99.90;;;;;;4978527;28;20583;-78
2022/07/11 02:29:01;;;;;;;146.57;139.10;;;14.60;99.90;;;;;;4977473;28;20268;-78
2022/07/11 02:31:27;;;;;;;133.70;126.10;;;14.60;99.90;;;;;;4978425;28;20212;-78
2022/07/11 02:33:53;;;;;;;129.00;122.20;;;14.60;99.90;;;;;;4978865;28;20185;-78
2022/07/11 02:36:20;;;;;;;95.53;90.77;;;14.60;99.90;;;;;;4998187;28;20212;-78
2022/07/11 02:38:46;;;;;;;34.87;33.03;;;14.70;99.90;;;;;;4998487;28;20190;-78
2022/07/11 02:41:12;;;;;;;29.33;27.87;;;14.70;99.90;;;;;;4998819;28;20752;-78
2022/07/11 02:43:38;;;;;;;21.10;19.90;;;14.80;99.90;;;;;;4996599;28;20204;-77
2022/07/11 02:46:05;;;;;;;13.80;13.13;;;14.70;99.90;;;;;;4966505;28;20201;-78
2022/07/11 02:48:31;;;;;;;10.63;9.77;;;14.80;99.90;;;;;;4977128;28;20333;-78
2022/07/11 02:50:57;;;;;;;12.00;11.23;;;14.80;99.90;;;;;;4962270;28;20639;-78
2022/07/11 02:53:23;;;;;;;6.87;6.47;;;14.80;99.90;;;;;;4981732;28;20184;-77
2022/07/11 02:55:49;;;;;;;5.20;4.80;;;14.80;99.90;;;;;;4996113;28;20668;-77
2022/07/11 02:58:15;;;;;;;5.87;5.40;;;14.80;99.90;;;;;;4996374;28;20242;-78
2022/07/11 03:00:41;;;;;;;5.83;5.40;;;14.80;99.90;;;;;;4998609;28;20177;-78
2022/07/11 03:03:07;;;;;;;6.53;5.43;;;14.80;99.90;;;;;;4998763;28;20757;-78
2022/07/11 03:05:33;;;;;;;7.20;5.83;;;14.80;99.90;;;;;;4985638;28;20213;-78
2022/07/11 03:07:59;;;;;;;5.17;4.77;;;14.80;99.90;;;;;;4978579;28;20567;-78
2022/07/11 03:10:25;;;;;;;11.20;10.30;;;14.80;99.90;;;;;;4961876;28;20185;-78
2022/07/11 03:12:51;;;;;;;6.33;5.93;;;14.90;99.90;;;;;;4989755;28;20181;-79
2022/07/11 03:15:18;;;;;;;7.03;6.63;;;14.90;99.90;;;;;;4980624;28;20709;-78
2022/07/11 03:17:44;;;;;;;11.40;10.80;;;14.90;99.90;;;;;;4978897;28;20272;-78
2022/07/11 03:20:10;;;;;;;13.00;12.30;;;15.00;99.90;;;;;;4978408;28;20771;-78
2022/07/11 03:22:36;;;;;;;10.07;9.00;;;15.00;99.90;;;;;;5013167;28;20186;-77
2022/07/11 03:25:05;;;;;;;10.43;9.63;;;14.90;99.90;;;;;;4994695;28;20644;-77
2022/07/11 03:27:32;;;;;;;11.53;10.93;;;15.00;99.90;;;;;;5008709;28;20184;-77
2022/07/11 03:29:57;;;;;;;12.80;12.00;;;15.00;99.90;;;;;;4994669;28;20227;-74
2022/07/11 03:32:24;;;;;;;9.23;8.73;;;14.90;99.90;;;;;;4991687;28;20191;-74
2022/07/11 03:37:34;;;;;;;6.67;5.70;;;15.00;99.90;;;;;;4992330;28;20218;-74
2022/07/11 03:40:00;;;;;;;8.83;8.30;;;15.00;99.90;;;;;;4993243;28;20751;-72
2022/07/11 03:42:26;;;;;;;11.03;10.13;;;15.10;99.90;;;;;;4982417;28;20207;-72
2022/07/11 03:44:52;;;;;;;11.63;11.03;;;15.00;99.90;;;;;;4975210;28;20238;-72
2022/07/11 03:47:19;;;;;;;11.40;10.80;;;15.00;99.90;;;;;;4974940;28;20177;-73
2022/07/11 03:49:46;;;;;;;12.33;11.67;;;15.00;99.90;;;;;;4991362;28;20176;-73
2022/07/11 03:52:12;;;;;;;14.70;13.80;;;15.00;99.90;;;;;;4991920;28;20230;-72
2022/07/11 03:54:39;;;;;;;14.00;13.10;;;15.00;99.90;;;;;;4973031;28;20572;-73
2022/07/11 03:57:05;;;;;;;13.33;12.63;;;15.10;99.90;;;;;;4968524;28;20209;-72
2022/07/11 03:59:31;;;;;;;12.60;11.83;;;15.10;99.90;;;;;;4949724;28;20193;-72
2022/07/11 04:01:57;;;;;;;7.83;7.43;;;15.20;99.90;;;;;;4975599;28;20566;-73
2022/07/11 04:04:23;;;;;;;7.40;6.50;;;15.20;99.90;;;;;;4975313;28;20215;-74
2022/07/11 04:06:49;;;;;;;38.20;36.23;;;15.20;99.90;;;;;;4964484;28;20225;-70
2022/07/11 04:09:14;;;;;;;43.43;40.87;;;15.30;99.90;;;;;;4971042;28;20215;-71
2022/07/11 04:11:41;;;;;;;33.60;31.43;;;15.30;99.90;;;;;;4971607;28;20628;-70
2022/07/11 04:14:06;;;;;;;25.33;23.93;;;15.40;99.90;;;;;;4988654;28;20184;-70
2022/07/11 04:16:32;;;;;;;32.80;31.17;;;15.40;99.90;;;;;;4990537;28;20719;-70
2022/07/11 04:18:58;;;;;;;34.30;32.47;;;15.40;99.90;;;;;;4990643;28;20186;-71
2022/07/11 04:21:24;;;;;;;70.97;67.47;;;15.40;99.90;;;;;;4991516;28;20271;-70
2022/07/11 04:23:49;;;;;;;66.07;62.67;;;15.40;99.90;;;;;;4991646;28;20674;-70
2022/07/11 04:26:16;;;;;;;77.27;73.33;;;15.40;99.90;;;;;;4978154;28;20255;-77
2022/07/11 04:28:42;;;;;;;96.47;91.47;;;15.50;99.90;;;;;;5007670;28;20173;-76
2022/07/11 04:31:08;;;;;;;91.20;86.53;;;15.40;99.90;;;;;;4981054;28;20213;-76
2022/07/11 04:33:34;;;;;;;109.60;104.03;;;15.40;99.90;;;;;;4974504;28;20232;-77
2022/07/11 04:36:00;;;;;;;104.57;99.50;;;15.40;99.90;;;;;;4983284;28;20212;-77
2022/07/11 04:38:26;;;;;;;136.93;130.03;;;15.40;99.90;;;;;;4971042;28;20185;-77
2022/07/11 04:40:52;;;;;;;131.87;125.10;;;15.40;99.90;;;;;;4985619;28;20192;-77
2022/07/11 04:43:17;;;;;;;140.27;133.20;;;15.50;99.90;;;;;;4970647;28;20471;-78
2022/07/11 04:45:43;;;;;;;162.70;153.87;;;15.60;99.90;;;;;;4975971;28;20628;-77
2022/07/11 04:48:09;;;;;;;172.07;162.93;;;15.70;99.90;;;;;;4984480;28;20187;-77
2022/07/11 04:50:35;;;;;;;175.27;166.10;;;15.80;99.90;;;;;;4993404;28;20192;-76
2022/07/11 04:53:02;;;;;;;136.20;129.07;;;15.90;99.90;;;;;;4974437;28;20641;-76
2022/07/11 04:55:29;;;;;;;77.00;73.17;;;16.00;99.90;;;;;;4973597;28;20258;-76
2022/07/11 04:57:55;;;;;;;37.53;35.57;;;16.00;99.90;;;;;;4989255;28;20258;-76
2022/07/11 05:00:21;;;;;;;18.37;17.27;;;16.10;99.90;;;;;;4970937;28;20651;-76
2022/07/11 05:02:47;;;;;;;7.40;6.80;;;16.20;99.90;;;;;;4991504;28;20664;-75
2022/07/11 05:05:13;;;;;;;5.10;4.60;;;16.20;99.90;;;;;;4992123;28;20220;-76
2022/07/11 05:07:38;;;;;;;6.00;5.43;;;16.30;99.90;;;;;;4992259;28;20857;-80
2022/07/11 05:10:05;;;;;;;5.23;4.57;;;16.40;99.90;;;;;;4995305;28;20188;-78
2022/07/11 05:12:31;;;;;;;4.77;4.47;;;16.50;99.90;;;;;;4993482;28;20268;-78
2022/07/11 05:14:58;;;;;;;7.13;6.63;;;16.60;99.90;;;;;;4978119;28;20197;-77
2022/07/11 05:17:25;;;;;;;11.20;10.60;;;16.70;99.90;;;;;;4972417;28;20276;-77
2022/07/11 05:19:51;;;;;;;14.33;13.60;;;16.80;99.90;;;;;;4971175;28;20185;-77
2022/07/11 05:22:17;;;;;;;14.27;13.33;;;16.70;99.90;;;;;;4972735;28;20646;-78
2022/07/11 05:24:43;;;;;;;10.13;8.60;;;16.70;99.90;;;;;;4954841;28;20240;-77
2022/07/11 05:27:09;;;;;;;13.67;12.87;;;16.80;99.90;;;;;;4954303;28;20698;-77
2022/07/11 05:29:34;;;;;;;14.73;13.53;;;16.90;99.90;;;;;;4972163;28;20184;-77
2022/07/11 05:32:01;;;;;;;16.23;15.27;;;16.90;99.90;;;;;;4978820;28;20180;-77
2022/07/11 05:34:27;;;;;;;15.83;14.77;;;16.90;99.90;;;;;;4974320;28;20189;-77
2022/07/11 05:36:53;;;;;;;21.07;19.97;;;17.00;99.90;;;;;;5005984;28;20574;-77
2022/07/11 05:39:19;;;;;;;24.97;23.57;;;17.10;99.90;;;;;;4974135;28;20192;-77
2022/07/11 05:41:45;;;;;;;34.50;32.80;;;17.20;99.90;;;;;;4990958;28;20188;-77
2022/07/11 05:44:11;;;;;;;35.53;33.70;;;17.50;99.90;;;;;;4984735;28;20247;-77
2022/07/11 05:46:39;;;;;;;26.53;25.23;;;17.60;99.90;;;;;;5008473;28;20200;-77
2022/07/11 05:49:07;;;;;;;21.40;20.20;;;17.80;99.90;;;;;;4983340;28;20185;-78
2022/07/11 05:51:33;;;;;;;16.70;15.70;;;17.80;99.90;;;;;;4995152;28;20212;-79
2022/07/11 05:53:58;;;;;;;12.10;11.40;;;17.90;99.90;;;;;;4979470;28;20192;-78
2022/07/11 05:56:25;;;;;;;9.77;8.93;;;18.10;99.90;;;;;;4983411;28;20197;-79
2022/07/11 05:58:51;;;;;;;10.03;9.03;;;18.00;99.90;;;;;;4958650;28;20173;-79
2022/07/11 06:01:18;;;;;;;9.07;7.97;;;18.10;99.90;;;;;;4956821;28;20269;-80
2022/07/11 06:03:43;;;;;;;6.37;6.03;;;18.40;99.90;;;;;;4985878;28;20217;-78
2022/07/11 06:06:10;;;;;;;6.23;5.80;;;18.40;99.90;;;;;;4969080;28;20218;-78
2022/07/11 06:08:42;;;;;;;6.27;4.80;;;18.60;99.90;;;;;;4953849;28;20251;-79
2022/07/11 06:11:10;;;;;;;5.43;4.93;;;18.70;99.90;;;;;;4972533;28;20177;-77
2022/07/11 06:13:37;;;;;;;4.57;4.10;;;18.60;99.90;;;;;;4988405;28;20196;-77
2022/07/11 06:16:05;;;;;;;5.20;4.90;;;18.60;99.90;;;;;;4987220;28;20560;-78
2022/07/11 06:18:31;;;;;;;6.40;5.77;;;18.80;99.90;;;;;;4973280;28;20221;-77
2022/07/11 06:20:57;;;;;;;6.90;6.37;;;18.90;99.90;;;;;;4990531;28;20181;-77
2022/07/11 06:23:23;;;;;;;7.10;6.50;;;19.10;99.90;;;;;;4978016;28;20185;-78
2022/07/11 06:25:48;;;;;;;7.43;6.17;;;19.30;99.90;;;;;;4987880;28;20556;-78
2022/07/11 06:28:14;;;;;;;7.33;6.67;;;19.50;99.90;;;;;;4997105;28;20191;-78
2022/07/11 06:30:40;;;;;;;6.90;6.37;;;19.60;99.90;;;;;;4995437;28;20653;-78
2022/07/11 06:33:06;;;;;;;7.07;6.43;;;19.60;99.90;;;;;;4978496;28;20550;-78
2022/07/11 06:35:32;;;;;;;7.13;6.63;;;19.60;99.90;;;;;;4994951;28;20212;-75
2022/07/11 06:37:58;;;;;;;7.57;6.87;;;19.60;99.90;;;;;;4993307;28;20189;-78
2022/07/11 06:40:24;;;;;;;8.73;8.13;;;19.70;99.90;;;;;;4962692;28;20224;-75
2022/07/11 06:42:50;;;;;;;7.37;6.87;;;19.90;99.90;;;;;;4974831;28;20717;-78
2022/07/11 06:45:15;;;;;;;10.33;9.83;;;20.20;99.90;;;;;;4976356;28;20221;-77
2022/07/11 06:47:43;;;;;;;8.70;6.20;;;20.20;99.90;;;;;;4976027;28;20173;-77
2022/07/11 06:50:09;;;;;;;6.30;5.70;;;20.40;99.90;;;;;;4978283;28;20180;-78
2022/07/11 06:52:36;;;;;;;7.10;6.30;;;20.60;99.90;;;;;;4978569;28;20209;-77
2022/07/11 06:55:02;;;;;;;7.40;6.80;;;20.80;99.90;;;;;;4993624;28;20565;-77
2022/07/11 06:57:28;;;;;;;11.93;11.30;;;20.70;99.90;;;;;;4987759;28;20188;-75
2022/07/11 06:59:55;;;;;;;14.25;13.18;;;20.90;99.90;;;;;;4963940;28;20192;-75
2022/07/11 07:02:23;;;;;;;11.98;11.10;;;21.20;99.90;;;;;;4974342;28;20185;-74
2022/07/11 07:04:49;;;;;;;12.48;11.68;;;21.30;99.90;;;;;;4984887;28;20212;-78
2022/07/11 07:07:15;;;;;;;13.32;12.63;;;21.40;99.90;;;;;;4990835;28;20215;-75
2022/07/11 07:09:41;;;;;;;16.77;15.43;;;21.60;99.90;;;;;;4975499;28;20189;-76
2022/07/11 07:12:07;;;;;;;16.13;15.27;;;21.90;99.90;;;;;;4990478;28;20196;-76
2022/07/11 07:14:32;;;;;;;23.80;22.20;;;22.30;99.90;;;;;;4993271;28;20187;-76
2022/07/11 07:16:58;;;;;;;22.27;21.17;;;22.20;99.90;;;;;;4974690;28;20710;-77
2022/07/11 07:19:24;;;;;;;15.95;15.00;;;22.30;99.90;;;;;;4992526;28;20184;-76
2022/07/11 07:21:50;;;;;;;18.38;17.35;;;22.40;99.90;;;;;;4992928;28;20181;-76
2022/07/11 07:24:16;;;;;;;16.15;15.13;;;22.40;99.90;;;;;;4994194;28;20231;-77
2022/07/11 07:26:41;;;;;;;12.48;11.80;;;22.80;99.90;;;;;;4996695;28;20200;-77
2022/07/11 07:29:08;;;;;;;12.00;11.40;;;23.10;99.90;;;;;;4994295;28;20180;-77
2022/07/11 07:31:33;;;;;;;5.28;5.05;;;23.30;99.90;;;;;;4974467;28;20199;-77
2022/07/11 07:33:59;;;;;;;6.25;5.95;;;23.30;99.90;;;;;;4980066;28;20193;-77
2022/07/11 07:36:26;;;;;;;5.63;5.32;;;23.60;99.90;;;;;;4972441;28;20213;-77
2022/07/11 07:38:51;;;;;;;7.95;7.45;;;23.80;99.90;;;;;;4954780;28;20597;-77
2022/07/11 07:41:17;;;;;;;17.35;16.45;;;24.10;99.90;;;;;;4973309;28;20215;-77
2022/07/11 07:43:44;;;;;;;17.83;16.83;;;24.30;99.90;;;;;;4970565;28;20300;-77
2022/07/11 07:46:11;;;;;;;18.20;17.35;;;24.70;99.90;;;;;;4966817;28;20207;-77
2022/07/11 07:48:38;;;;;;;16.13;15.30;;;24.50;99.90;;;;;;4974230;28;20544;-77
2022/07/11 07:51:04;;;;;;;13.85;12.85;;;24.10;99.90;;;;;;4974650;28;20180;-77
2022/07/11 07:53:30;;;;;;;14.30;13.48;;;23.80;99.90;;;;;;4992194;28;20185;-76
2022/07/11 07:55:56;;;;;;;14.48;13.77;;;24.10;99.90;;;;;;4991738;28;20734;-77
2022/07/11 07:58:22;;;;;;;12.88;12.27;;;24.30;99.90;;;;;;4973030;28;20191;-77
2022/07/11 08:03:33;;;;;;;10.85;10.25;;;24.40;99.90;;;;;;4972426;28;20204;-77
2022/07/11 08:05:58;;;;;;;12.02;11.43;;;24.50;99.90;;;;;;4997248;23;20266;-73
2022/07/11 08:08:24;;;;;;;11.52;10.98;;;24.70;99.90;;;;;;4991121;28;20180;-75
2022/07/11 08:10:51;;;;;;;14.27;13.55;;;24.60;99.90;;;;;;4992045;28;20556;-75
2022/07/11 08:13:19;;;;;;;14.32;13.63;;;24.80;99.80;;;;;;4990822;28;20215;-74
2022/07/11 08:15:46;;;;;;;8.93;8.43;;;25.40;99.40;;;;;;4991869;28;20200;-75
2022/07/11 08:18:12;;;;;;;9.55;9.10;;;26.10;99.40;;;;;;4991072;28;20183;-75
2022/07/11 08:20:39;;;;;;;7.55;7.15;;;26.70;96.20;;;;;;4991043;28;20274;-75
2022/07/11 08:23:05;;;;;;;4.05;3.85;;;26.50;96.00;;;;;;4991978;28;20180;-74
2022/07/11 08:25:31;;;;;;;3.33;3.13;;;26.40;95.30;;;;;;4993494;28;20214;-74
2022/07/11 08:27:57;;;;;;;3.88;3.60;;;26.00;95.40;;;;;;4986164;28;20200;-74
2022/07/11 08:30:23;;;;;;;4.30;4.10;;;25.90;95.70;;;;;;4971315;28;20687;-74
2022/07/11 08:32:49;;;;;;;4.35;4.15;;;26.00;96.20;;;;;;4971122;28;20351;-74
2022/07/11 08:35:18;;;;;;;6.32;5.93;;;25.50;95.40;;;;;;4971480;28;20280;-74
2022/07/11 08:37:44;;;;;;;8.77;8.20;;;25.40;96.40;;;;;;4971649;28;20192;-74
2022/07/11 08:40:10;;;;;;;8.10;7.70;;;25.40;96.40;;;;;;4972146;28;20184;-74
2022/07/11 08:42:41;;;;;;;6.20;5.80;;;25.90;96.60;;;;;;4977883;28;20182;-77
2022/07/11 08:45:14;;;;;;;8.27;7.68;;;26.00;95.00;;;;;;4990850;28;20233;-75
2022/07/11 08:47:40;;;;;;;4.40;4.22;;;26.30;96.30;;;;;;4990618;28;20188;-75
2022/07/11 08:50:10;;;;;;;3.38;3.28;;;26.90;94.40;;;;;;4990649;28;20538;-75
2022/07/11 08:52:37;;;;;;;3.60;3.40;;;26.90;94.70;;;;;;4991591;28;20180;-75
2022/07/11 08:55:06;;;;;;;6.68;6.38;;;27.50;94.00;;;;;;4989031;28;20238;-76
2022/07/11 08:57:36;;;;;;;7.10;6.80;;;27.90;91.70;;;;;;4975214;28;20189;-75
2022/07/11 09:00:06;;;;;;;5.40;4.90;;;27.90;91.30;;;;;;4970436;28;20212;-76
2022/07/11 09:02:33;;;;;;;3.42;3.22;;;28.00;91.50;;;;;;5003331;28;20224;-75
2022/07/11 09:05:02;;;;;;;3.00;2.90;;;28.00;90.20;;;;;;4971109;28;20716;-76
2022/07/11 09:07:28;;;;;;;3.53;3.42;;;27.90;90.40;;;;;;4969947;28;20899;-75
2022/07/11 09:09:55;;;;;;;4.00;3.78;;;27.60;90.80;;;;;;4970514;28;20201;-75
2022/07/11 09:12:21;;;;;;;4.78;4.43;;;27.30;90.30;;;;;;5019510;28;20188;-75
2022/07/11 09:14:48;;;;;;;7.20;6.85;;;26.30;91.10;;;;;;4989971;28;20672;-75
2022/07/11 09:17:14;;;;;;;3.00;2.80;;;25.60;92.70;;;;;;4990400;28;20204;-74
2022/07/11 09:19:41;;;;;;;6.30;6.10;;;25.00;93.70;;;;;;4990277;28;20219;-74
2022/07/11 09:25:21;;;;;;;6.97;6.68;;;25.50;93.70;;;;;;4987183;28;20211;-75
2022/07/11 09:27:49;;;;;;;7.20;6.90;;;25.60;93.20;;;;;;4971260;28;20270;-75
2022/07/11 09:30:20;;;;;;;4.07;3.97;;;25.70;93.20;;;;;;4971703;28;20184;-76
2022/07/11 09:33:01;;;;;;;3.40;3.13;;;26.20;91.90;;;;;;4971286;28;20549;-75
2022/07/11 09:35:28;;;;;;;3.67;3.45;;;26.30;91.40;;;;;;4971387;28;20642;-74
2022/07/11 09:37:54;;;;;;;3.35;3.25;;;26.30;92.10;;;;;;4971127;28;20220;-74
2022/07/11 09:40:22;;;;;;;3.42;3.30;;;26.20;91.90;;;;;;4983219;28;20982;-75
2022/07/11 09:42:53;;;;;;;4.03;3.78;;;26.30;91.20;;;;;;4990953;28;20617;-75
2022/07/11 09:45:22;;;;;;;3.95;3.65;;;26.80;90.40;;;;;;4989254;28;20241;-75
2022/07/11 09:47:50;;;;;;;3.85;3.72;;;27.60;87.30;;;;;;4984621;28;20192;-75
2022/07/11 09:50:21;;;;;;;4.25;4.05;;;27.20;88.20;;;;;;4990723;28;20189;-75
2022/07/11 09:53:13;;;;;;;3.75;3.55;;;27.30;89.40;;;;;;4991087;28;20180;-76
2022/07/11 09:55:41;;;;;;;3.92;3.70;;;27.70;90.30;;;;;;4993918;28;20689;-75
2022/07/11 09:58:09;;;;;;;3.70;3.50;;;28.10;85.40;;;;;;5025319;28;20283;-74
2022/07/11 10:00:36;;;;;;;3.10;2.83;;;27.60;84.80;;;;;;4993706;28;20177;-74
2022/07/11 10:03:04;;;;;;;3.58;3.42;;;27.60;84.90;;;;;;4992676;28;20288;-74
2022/07/11 10:05:31;;;;;;;3.63;3.53;;;27.50;85.80;;;;;;4994087;28;20571;-75
2022/07/11 10:07:57;;;;;;;3.30;3.20;;;27.60;84.40;;;;;;4993907;28;20177;-74
2022/07/11 10:10:25;;;;;;;4.13;4.03;;;27.20;85.60;;;;;;4993636;28;20187;-75
2022/07/11 10:12:54;;;;;;;3.45;3.25;;;26.80;85.00;;;;;;4993929;28;20177;-75
2022/07/11 10:15:23;;;;;;;3.85;3.65;;;26.80;83.30;;;;;;4986916;28;20208;-74
2022/07/11 10:18:05;;;;;;;3.00;2.90;;;26.80;81.70;;;;;;4973391;28;20177;-76
2022/07/11 10:20:56;;;;;;;3.38;3.28;;;26.80;85.10;;;;;;4975027;28;20189;-75
2022/07/11 10:23:35;;;;;;;3.10;3.00;;;27.10;83.60;;;;;;4974043;28;20181;-74
2022/07/11 10:26:38;;;;;;;3.50;3.40;;;26.70;84.70;;;;;;4973664;28;20213;-75
2022/07/11 10:29:22;;;;;;;4.30;4.20;;;25.70;89.20;;;;;;4976027;28;20810;-75
2022/07/11 10:32:04;;;;;;;3.58;3.38;;;26.10;87.10;;;;;;4975880;28;20848;-74
2022/07/11 10:34:31;;;;;;;4.57;4.38;;;26.30;87.10;;;;;;4974470;28;20671;-75
2022/07/11 10:37:02;;;;;;;4.47;4.22;;;26.40;87.70;;;;;;4973470;28;20319;-74
2022/07/11 10:39:28;;;;;;;3.10;3.00;;;27.20;86.70;;;;;;4965351;28;20218;-76
2022/07/11 10:41:58;;;;;;;4.03;3.83;;;27.60;83.60;;;;;;4985266;28;20177;-73
2022/07/11 10:44:26;;;;;;;4.15;3.95;;;27.60;82.30;;;;;;4993905;28;20251;-75
2022/07/11 10:46:52;;;;;;;3.38;3.20;;;27.60;83.50;;;;;;4990931;28;20287;-74
2022/07/11 10:49:40;;;;;;;4.30;4.10;;;28.20;80.50;;;;;;4991925;28;20283;-75
2022/07/11 10:52:07;;;;;;;4.55;4.32;;;28.30;79.80;;;;;;4992309;28;20191;-74
2022/07/11 10:54:44;;;;;;;4.93;4.72;;;28.50;81.00;;;;;;4992308;28;20184;-75
2022/07/11 10:57:25;;;;;;;4.75;4.55;;;28.10;80.60;;;;;;4991381;28;20246;-75
2022/07/11 10:59:55;;;;;;;5.30;5.00;;;27.60;80.00;;;;;;4991067;28;20215;-75
2022/07/11 11:02:21;;;;;;;4.50;4.32;;;27.70;81.20;;;;;;4972033;28;20185;-75
2022/07/11 11:05:05;;;;;;;5.18;4.97;;;28.00;81.20;;;;;;4971998;28;20697;-75
2022/07/11 11:07:34;;;;;;;5.43;5.07;;;28.20;80.90;;;;;;4983603;28;20189;-75
2022/07/11 11:10:03;;;;;;;5.20;4.80;;;28.30;80.40;;;;;;4990853;28;20379;-75
2022/07/11 11:13:06;;;;;;;4.60;4.28;;;28.80;79.70;;;;;;4974956;28;20185;-76
2022/07/11 11:15:50;;;;;;;3.75;3.55;;;29.00;79.00;;;;;;4987232;28;20218;-76
2022/07/11 11:18:31;;;;;;;4.47;4.28;;;29.50;77.40;;;;;;4989882;28;20586;-76
2022/07/11 11:21:00;;;;;;;3.92;3.72;;;29.30;77.70;;;;;;4993113;28;20172;-75
2022/07/11 11:23:40;;;;;;;4.20;4.03;;;28.60;77.30;;;;;;4992689;28;20264;-76
2022/07/11 11:26:13;;;;;;;5.63;5.05;;;27.70;79.70;;;;;;4992924;28;20930;-75
2022/07/11 11:29:01;;;;;;;5.65;5.45;;;27.50;80.00;;;;;;4986731;28;20173;-75
2022/07/11 11:31:29;;;;;;;5.35;5.15;;;27.50;79.80;;;;;;4972689;28;20170;-75
2022/07/11 11:34:00;;;;;;;5.78;5.47;;;27.60;80.80;;;;;;4971977;28;20181;-75
2022/07/11 11:36:27;;;;;;;5.28;5.00;;;28.10;80.70;;;;;;4973333;28;20209;-75
2022/07/11 11:38:53;;;;;;;5.53;5.07;;;28.40;78.20;;;;;;4971149;28;20240;-76
2022/07/11 11:41:37;;;;;;;4.18;3.97;;;28.60;79.10;;;;;;4973282;28;20189;-76
2022/07/11 11:44:03;;;;;;;4.88;4.47;;;28.60;76.20;;;;;;4986849;28;20215;-75
2022/07/11 11:46:31;;;;;;;4.38;4.07;;;28.50;77.50;;;;;;4991664;28;20200;-75
2022/07/11 11:49:04;;;;;;;3.78;3.60;;;28.90;78.10;;;;;;4989864;28;20194;-76
2022/07/11 11:51:32;;;;;;;3.58;3.45;;;29.20;75.40;;;;;;4992476;28;20653;-76
2022/07/11 11:53:59;;;;;;;3.92;3.72;;;29.20;74.60;;;;;;4990815;28;20184;-76
2022/07/11 11:56:28;;;;;;;4.00;3.80;;;28.90;76.00;;;;;;4992319;28;20311;-75
2022/07/11 11:59:08;;;;;;;5.43;5.18;;;28.20;76.70;;;;;;4970568;28;20185;-75
2022/07/11 12:01:36;;;;;;;5.80;5.38;;;27.60;79.50;;;;;;4970998;28;20184;-76
2022/07/11 12:04:12;;;;;;;5.63;5.43;;;27.50;79.50;;;;;;4971147;28;20237;-76
2022/07/11 12:06:46;;;;;;;4.50;4.22;;;28.00;78.50;;;;;;4972526;28;20275;-75
2022/07/11 12:09:15;;;;;;;4.47;4.07;;;28.70;76.60;;;;;;4971244;28;20834;-76
2022/07/11 12:11:45;;;;;;;3.70;3.40;;;28.80;77.00;;;;;;4976087;28;20258;-76
2022/07/11 12:14:13;;;;;;;4.00;3.80;;;29.20;75.70;;;;;;4973202;28;20189;-75
2022/07/11 12:16:49;;;;;;;4.13;3.92;;;29.10;74.70;;;;;;4989747;28;20232;-72
2022/07/11 12:19:18;;;;;;;4.15;3.85;;;28.90;73.90;;;;;;4992328;28;20195;-73
2022/07/11 12:21:46;;;;;;;4.32;4.03;;;29.20;74.90;;;;;;4987440;28;20322;-76
2022/07/11 12:24:17;;;;;;;4.15;3.72;;;29.40;74.40;;;;;;4990369;28;20262;-75
2022/07/11 12:26:44;;;;;;;6.93;6.63;;;30.20;71.10;;;;;;4976713;28;20296;-75
2022/07/11 12:29:12;;;;;;;10.63;10.20;;;30.70;68.00;;;;;;4971229;28;20177;-75
2022/07/11 12:31:42;;;;;;;9.88;9.48;;;30.70;69.10;;;;;;4970058;28;20193;-75
2022/07/11 12:34:08;;;;;;;9.73;9.25;;;30.90;67.80;;;;;;4970933;28;20805;-75
2022/07/11 12:36:34;;;;;;;9.45;9.05;;;30.10;69.40;;;;;;4970959;28;20208;-76
2022/07/11 12:39:00;;;;;;;5.07;4.88;;;28.90;70.50;;;;;;4968918;28;20686;-75
2022/07/11 12:41:28;;;;;;;4.22;3.92;;;27.90;74.30;;;;;;4975742;28;20184;-75
2022/07/11 12:46:40;;;;;;;4.40;3.97;;;27.20;76.60;;;;;;4970951;28;20725;-74
2022/07/11 12:49:11;;;;;;;5.68;5.38;;;27.00;77.10;;;;;;4970507;28;20212;-76
2022/07/11 12:51:43;;;;;;;6.45;6.00;;;26.70;77.70;;;;;;4970756;28;20184;-74
2022/07/11 12:54:16;;;;;;;6.60;6.30;;;26.70;78.20;;;;;;4971482;28;20200;-77